createdAt,value
2018-09-12T00:00:38.649Z,78.02
2018-09-12T00:01:38.664Z,78.11
2018-09-12T00:02:38.679Z,77.92
2018-09-12T00:03:38.793Z,78.31
2018-09-12T00:04:38.714Z,78.59
2018-09-12T00:05:38.740Z,78.88
2018-09-12T00:06:38.746Z,78.40
2018-09-12T00:07:38.765Z,78.40
2018-09-12T00:08:38.775Z,78.40
2018-09-12T00:09:38.795Z,77.92
2018-09-12T00:10:38.809Z,78.11
2018-09-12T00:11:38.837Z,78.98
2018-09-12T00:12:38.842Z,79.03
2018-09-12T00:13:38.860Z,78.98
2018-09-12T00:14:38.879Z,78.50
2018-09-12T00:15:38.892Z,78.11
2018-09-12T00:16:38.908Z,78.50
2018-09-12T00:17:38.925Z,78.69
2018-09-12T00:18:38.950Z,77.92
2018-09-12T00:19:38.962Z,77.92
2018-09-12T00:20:38.987Z,78.11
2018-09-12T00:21:38.992Z,78.50
2018-09-12T00:22:39.069Z,78.79
2018-09-12T00:23:39.110Z,79.08
2018-09-12T00:24:39.041Z,78.98
2018-09-12T00:25:39.260Z,79.13
2018-09-12T00:26:39.075Z,78.69
2018-09-12T00:27:39.091Z,79.27
2018-09-12T00:28:39.107Z,79.85
2018-09-12T00:29:39.123Z,79.52
2018-09-12T00:30:39.142Z,79.17
2018-09-12T00:31:39.156Z,79.17
2018-09-12T00:32:39.171Z,79.43
2018-09-12T00:33:39.192Z,79.33
2018-09-12T00:34:39.221Z,79.90
2018-09-12T00:35:39.221Z,79.81
2018-09-12T00:36:39.354Z,80.58
2018-09-12T00:37:39.253Z,80.38
2018-09-12T00:38:39.274Z,80.58
2018-09-12T00:39:39.292Z,80.10
2018-09-12T00:40:39.303Z,80.58
2018-09-12T00:41:39.319Z,80.68
2018-09-12T00:42:39.339Z,80.77
2018-09-12T00:43:39.361Z,80.68
2018-09-12T00:44:39.382Z,80.58
2018-09-12T00:45:39.384Z,80.77
2018-09-12T00:46:39.398Z,80.38
2018-09-12T00:47:39.417Z,80.77
2018-09-12T00:48:39.635Z,80.48
2018-09-12T00:49:39.460Z,81.06
2018-09-12T00:50:39.474Z,80.68
2018-09-12T00:51:39.481Z,81.06
2018-09-12T00:52:39.500Z,81.06
2018-09-12T00:53:39.515Z,80.68
2018-09-12T00:54:39.532Z,80.96
2018-09-12T00:55:39.629Z,80.96
2018-09-12T00:56:39.627Z,81.73
2018-09-12T00:57:39.583Z,80.96
2018-09-12T00:58:39.603Z,80.58
2018-09-12T00:59:39.614Z,80.96
2018-09-12T01:00:39.637Z,81.06
2018-09-12T01:01:39.652Z,80.91
2018-09-12T01:02:39.661Z,80.58
2018-09-12T01:03:39.678Z,80.58
2018-09-12T01:04:39.698Z,80.81
2018-09-12T01:05:39.712Z,80.77
2018-09-12T01:06:39.742Z,81.10
2018-09-12T01:07:39.750Z,80.62
2018-09-12T01:08:39.761Z,80.14
2018-09-12T01:09:39.774Z,80.81
2018-09-12T01:10:39.791Z,80.71
2018-09-12T01:11:39.809Z,80.81
2018-09-12T01:12:39.823Z,80.33
2018-09-12T01:13:39.840Z,80.71
2018-09-12T01:14:39.865Z,80.62
2018-09-12T01:15:39.875Z,81.10
2018-09-12T01:16:39.889Z,81.77
2018-09-12T01:17:39.908Z,80.91
2018-09-12T01:18:39.921Z,81.39
2018-09-12T01:19:39.939Z,81.73
2018-09-12T01:20:39.955Z,81.10
2018-09-12T01:21:39.975Z,81.63
2018-09-12T01:22:39.992Z,81.54
2018-09-12T01:23:40.003Z,81.73
2018-09-12T01:24:40.023Z,82.21
2018-09-12T01:25:40.036Z,81.83
2018-09-12T01:26:40.056Z,81.54
2018-09-12T01:27:40.070Z,81.93
2018-09-12T01:28:40.188Z,81.93
2018-09-12T01:29:40.099Z,82.02
2018-09-12T01:30:40.116Z,82.21
2018-09-12T01:31:40.133Z,82.50
2018-09-12T01:32:40.199Z,82.02
2018-09-12T01:33:40.166Z,82.02
2018-09-12T01:34:40.189Z,81.83
2018-09-12T01:35:40.199Z,82.31
2018-09-12T01:36:40.217Z,81.93
2018-09-12T01:37:40.240Z,82.45
2018-09-12T01:38:40.247Z,82.70
2018-09-12T01:39:40.278Z,82.89
2018-09-12T01:40:40.278Z,82.60
2018-09-12T01:41:40.300Z,82.79
2018-09-12T01:42:40.310Z,82.93
2018-09-12T01:43:40.338Z,83.08
2018-09-12T01:44:40.349Z,83.66
2018-09-12T01:45:40.361Z,83.66
2018-09-12T01:46:40.385Z,84.23
2018-09-12T01:47:40.468Z,83.95
2018-09-12T01:48:40.412Z,83.85
2018-09-12T01:49:40.423Z,84.33
2018-09-12T01:50:40.441Z,84.62
2018-09-12T01:51:40.497Z,84.53
2018-09-12T01:52:40.474Z,84.43
2018-09-12T01:53:40.487Z,84.53
2018-09-12T01:54:40.503Z,84.53
2018-09-12T01:55:40.524Z,85.39
2018-09-12T01:56:40.538Z,85.49
2018-09-12T01:57:40.559Z,85.68
2018-09-12T01:58:40.567Z,85.49
2018-09-12T01:59:40.595Z,85.78
2018-09-12T02:00:40.601Z,85.58
2018-09-12T02:01:40.619Z,85.97
2018-09-12T02:05:40.678Z,85.58
2018-09-12T02:06:40.696Z,85.10
2018-09-12T02:07:40.728Z,85.20
2018-09-12T02:08:40.729Z,85.39
2018-09-12T02:09:40.744Z,84.91
2018-09-12T02:10:40.761Z,84.62
2018-09-12T02:11:40.778Z,84.91
2018-09-12T02:12:40.794Z,84.81
2018-09-12T02:13:40.809Z,85.20
2018-09-12T02:14:40.823Z,85.20
2018-09-12T02:15:40.839Z,85.20
2018-09-12T02:16:40.857Z,84.91
2018-09-12T02:17:40.875Z,85.00
2018-09-12T02:18:40.887Z,85.30
2018-09-12T02:19:40.906Z,85.97
2018-09-12T02:20:40.919Z,85.97
2018-09-12T02:21:40.939Z,85.49
2018-09-12T02:22:40.954Z,85.20
2018-09-12T02:23:40.976Z,85.68
2018-09-12T02:24:40.984Z,85.20
2018-09-12T02:25:41.001Z,85.00
2018-09-12T02:26:41.021Z,85.87
2018-09-12T02:27:41.031Z,85.58
2018-09-12T02:28:41.049Z,85.30
2018-09-12T02:29:41.062Z,85.10
2018-09-12T02:30:41.085Z,84.53
2018-09-12T02:31:41.093Z,85.20
2018-09-12T02:32:41.110Z,85.78
2018-09-12T02:33:41.128Z,84.53
2018-09-12T02:34:41.150Z,84.33
2018-09-12T02:35:41.160Z,84.43
2018-09-12T02:36:41.178Z,84.81
2018-09-12T02:37:41.191Z,84.72
2018-09-12T02:38:41.232Z,84.72
2018-09-12T02:39:41.244Z,84.53
2018-09-12T02:40:41.239Z,84.77
2018-09-12T02:41:41.258Z,84.29
2018-09-12T02:42:41.274Z,84.29
2018-09-12T02:43:41.287Z,84.91
2018-09-12T02:44:41.303Z,84.23
2018-09-12T02:45:41.321Z,84.58
2018-09-12T02:46:41.347Z,84.48
2018-09-12T02:47:41.361Z,84.39
2018-09-12T02:48:41.370Z,84.53
2018-09-12T02:49:41.384Z,84.53
2018-09-12T02:50:41.402Z,85.10
2018-09-12T02:51:41.428Z,85.16
2018-09-12T02:52:41.434Z,85.74
2018-09-12T02:53:41.454Z,85.35
2018-09-12T02:54:41.469Z,85.74
2018-09-12T02:55:41.499Z,85.54
2018-09-12T02:56:41.503Z,85.64
2018-09-12T02:57:41.513Z,85.49
2018-09-12T02:58:41.544Z,85.44
2018-09-12T02:59:41.548Z,85.54
2018-09-12T03:00:41.561Z,85.58
2018-09-12T03:01:41.580Z,85.44
2018-09-12T03:02:41.597Z,85.54
2018-09-12T03:03:41.613Z,85.83
2018-09-12T03:04:41.626Z,85.83
2018-09-12T03:05:41.639Z,85.74
2018-09-12T03:06:41.657Z,85.44
2018-09-12T03:07:41.675Z,86.12
2018-09-12T03:08:41.692Z,86.22
2018-09-12T03:09:41.704Z,86.79
2018-09-12T03:10:41.718Z,86.22
2018-09-12T03:11:41.792Z,86.69
2018-09-12T03:12:42.086Z,87.37
2018-09-12T03:13:41.768Z,86.89
2018-09-12T03:14:41.794Z,86.89
2018-09-12T03:15:41.800Z,87.08
2018-09-12T03:16:41.817Z,87.56
2018-09-12T03:17:41.833Z,87.37
2018-09-12T03:18:41.847Z,87.95
2018-09-12T03:19:41.872Z,88.04
2018-09-12T03:20:41.955Z,88.04
2018-09-12T03:21:41.895Z,88.04
2018-09-12T03:22:41.914Z,87.56
2018-09-12T03:23:41.934Z,88.71
2018-09-12T03:24:41.943Z,88.62
2018-09-12T03:25:41.962Z,88.81
2018-09-12T03:26:41.977Z,88.81
2018-09-12T03:27:41.992Z,88.53
2018-09-12T03:28:42.009Z,88.62
2018-09-12T03:29:42.024Z,88.91
2018-09-12T03:30:42.041Z,89.49
2018-09-12T03:31:42.055Z,88.62
2018-09-12T03:32:42.073Z,89.29
2018-09-12T03:33:42.089Z,89.01
2018-09-12T03:34:42.109Z,88.81
2018-09-12T03:35:42.120Z,89.01
2018-09-12T03:36:42.137Z,89.29
2018-09-12T03:37:42.159Z,90.06
2018-09-12T03:38:42.173Z,88.62
2018-09-12T03:39:42.186Z,88.91
2018-09-12T03:40:42.203Z,89.29
2018-09-12T03:41:42.217Z,88.91
2018-09-12T03:42:42.231Z,88.81
2018-09-12T03:43:42.252Z,89.01
2018-09-12T03:44:42.274Z,89.29
2018-09-12T03:45:42.407Z,89.78
2018-09-12T03:46:42.321Z,89.78
2018-09-12T03:47:42.317Z,89.68
2018-09-12T03:48:42.328Z,89.87
2018-09-12T03:49:42.379Z,90.16
2018-09-12T03:50:42.397Z,90.55
2018-09-12T03:51:42.376Z,90.64
2018-09-12T03:52:42.397Z,90.35
2018-09-12T03:53:42.407Z,90.64
2018-09-12T03:54:42.424Z,90.73
2018-09-12T03:55:42.445Z,90.45
2018-09-12T03:56:42.456Z,90.64
2018-09-12T03:57:42.475Z,90.64
2018-09-12T03:58:42.532Z,90.35
2018-09-12T03:59:42.513Z,90.35
2018-09-12T04:00:42.548Z,90.73
2018-09-12T04:01:42.541Z,90.55
2018-09-12T04:02:42.616Z,90.55
2018-09-12T04:03:42.582Z,90.55
2018-09-12T04:04:42.591Z,90.55
2018-09-12T04:05:42.598Z,90.93
2018-09-12T04:06:42.616Z,91.27
2018-09-12T04:07:42.634Z,90.98
2018-09-12T04:08:42.647Z,90.89
2018-09-12T04:09:42.674Z,90.98
2018-09-12T04:10:42.680Z,91.75
2018-09-12T04:11:42.696Z,91.85
2018-09-12T04:12:42.714Z,91.85
2018-09-12T04:13:42.744Z,91.85
2018-09-12T04:14:42.743Z,92.52
2018-09-12T04:15:42.764Z,92.33
2018-09-12T04:16:42.795Z,92.71
2018-09-12T04:17:42.794Z,92.23
2018-09-12T04:18:42.855Z,92.23
2018-09-12T04:19:42.823Z,91.85
2018-09-12T04:20:42.848Z,92.33
2018-09-12T04:21:42.855Z,92.13
2018-09-12T04:22:42.874Z,92.43
2018-09-12T04:23:42.887Z,92.43
2018-09-12T04:24:42.989Z,92.71
2018-09-12T04:25:42.921Z,92.71
2018-09-12T04:26:42.933Z,92.91
2018-09-12T04:27:42.953Z,92.71
2018-09-12T04:28:42.970Z,93.19
2018-09-12T04:29:42.983Z,93.58
2018-09-12T04:30:43.013Z,93.77
2018-09-12T04:31:43.024Z,93.38
2018-09-12T04:32:43.035Z,93.77
2018-09-12T04:33:43.046Z,93.87
2018-09-12T04:34:43.059Z,93.96
2018-09-12T04:35:43.077Z,93.96
2018-09-12T04:36:43.095Z,93.96
2018-09-12T04:37:43.132Z,93.87
2018-09-12T04:38:43.134Z,94.06
2018-09-12T04:39:43.143Z,94.06
2018-09-12T04:40:43.176Z,94.06
2018-09-12T04:41:43.187Z,94.25
2018-09-12T04:42:43.261Z,93.87
2018-09-12T04:43:43.208Z,94.25
2018-09-12T04:44:43.272Z,94.25
2018-09-12T04:45:43.242Z,94.35
2018-09-12T04:47:43.277Z,94.35
2018-09-12T04:48:43.285Z,94.06
2018-09-12T04:49:43.321Z,94.15
2018-09-12T04:50:43.314Z,94.15
2018-09-12T04:51:43.329Z,94.15
2018-09-12T04:52:43.349Z,93.96
2018-09-12T04:53:43.375Z,94.25
2018-09-12T04:54:43.540Z,94.73
2018-09-12T04:55:43.392Z,94.54
2018-09-12T04:56:43.447Z,94.54
2018-09-12T04:57:43.487Z,95.02
2018-09-12T04:58:43.444Z,95.02
2018-09-12T04:59:43.512Z,94.92
2018-09-12T05:00:43.473Z,94.64
2018-09-12T05:01:43.491Z,94.54
2018-09-12T05:02:43.509Z,94.73
2018-09-12T05:03:43.518Z,94.83
2018-09-12T05:04:43.541Z,94.45
2018-09-12T05:05:43.557Z,95.12
2018-09-12T05:06:43.564Z,94.73
2018-09-12T05:07:43.597Z,95.02
2018-09-12T05:08:43.603Z,94.73
2018-09-12T05:09:43.611Z,94.45
2018-09-12T05:10:44.272Z,94.54
2018-09-12T05:11:43.660Z,94.83
2018-09-12T05:12:43.664Z,95.21
2018-09-12T05:13:43.677Z,95.40
2018-09-12T05:14:43.731Z,95.21
2018-09-12T05:15:43.753Z,95.50
2018-09-12T05:16:43.813Z,95.89
2018-09-12T05:17:43.951Z,95.98
2018-09-12T05:18:43.756Z,95.89
2018-09-12T05:19:43.772Z,95.89
2018-09-12T05:20:43.787Z,96.08
2018-09-12T05:21:43.835Z,96.08
2018-09-12T05:22:43.837Z,95.98
2018-09-12T05:23:43.832Z,96.27
2018-09-12T05:24:43.851Z,96.47
2018-09-12T05:25:43.866Z,96.66
2018-09-12T05:26:43.881Z,96.27
2018-09-12T05:27:43.897Z,96.56
2018-09-12T05:28:43.924Z,96.94
2018-09-12T05:29:43.935Z,96.94
2018-09-12T05:30:43.944Z,97.52
2018-09-12T05:31:43.961Z,97.81
2018-09-12T05:32:43.975Z,97.81
2018-09-12T05:33:43.989Z,97.71
2018-09-12T05:34:44.010Z,98.10
2018-09-12T05:35:44.024Z,99.06
2018-09-12T05:36:44.039Z,98.87
2018-09-12T05:37:44.053Z,98.87
2018-09-12T05:38:44.083Z,98.58
2018-09-12T05:39:44.086Z,99.44
2018-09-12T05:40:44.139Z,99.54
2018-09-12T05:41:44.116Z,99.44
2018-09-12T05:42:44.132Z,99.06
2018-09-12T05:43:44.150Z,99.16
2018-09-12T05:44:44.163Z,99.44
2018-09-12T05:45:44.195Z,99.54
2018-09-12T05:46:44.195Z,98.96
2018-09-12T05:47:44.217Z,98.77
2018-09-12T05:48:44.249Z,98.39
2018-09-12T05:49:44.242Z,98.10
2018-09-12T05:50:44.258Z,98.10
2018-09-12T05:51:44.277Z,97.62
2018-09-12T05:52:44.294Z,97.52
2018-09-12T05:53:44.304Z,98.49
2018-09-12T05:54:44.324Z,98.29
2018-09-12T05:55:44.359Z,99.01
2018-09-12T05:56:44.357Z,99.06
2018-09-12T05:57:44.368Z,98.58
2018-09-12T05:58:44.385Z,98.49
2018-09-12T05:59:44.411Z,98.39
2018-09-12T06:00:44.417Z,98.58
2018-09-12T06:01:44.431Z,98.19
2018-09-12T06:02:44.448Z,98.68
2018-09-12T06:03:44.474Z,99.16
2018-09-12T06:04:44.518Z,98.87
2018-09-12T06:05:44.494Z,98.87
2018-09-12T06:06:44.534Z,99.06
2018-09-12T06:07:44.526Z,99.16
2018-09-12T06:08:44.546Z,98.96
2018-09-12T06:09:44.558Z,98.39
2018-09-12T06:10:44.577Z,98.49
2018-09-12T06:11:44.593Z,98.39
2018-09-12T06:12:44.605Z,98.39
2018-09-12T06:13:44.677Z,98.19
2018-09-12T06:14:44.657Z,97.71
2018-09-12T06:15:44.814Z,97.81
2018-09-12T06:16:45.093Z,98.29
2018-09-12T06:17:44.753Z,97.62
2018-09-12T06:18:44.871Z,97.52
2018-09-12T06:19:44.707Z,97.86
2018-09-12T06:20:44.730Z,97.47
2018-09-12T06:21:44.740Z,98.00
2018-09-12T06:22:44.758Z,97.52
2018-09-12T06:23:44.771Z,97.28
2018-09-12T06:24:44.786Z,97.33
2018-09-12T06:25:44.817Z,97.38
2018-09-12T06:26:44.817Z,97.57
2018-09-12T06:27:45.176Z,97.71
2018-09-12T06:28:44.851Z,97.81
2018-09-12T06:29:45.179Z,97.52
2018-09-12T06:30:44.992Z,98.10
2018-09-12T06:31:44.907Z,97.57
2018-09-12T06:32:44.913Z,97.38
2018-09-12T06:33:44.929Z,97.38
2018-09-12T06:34:44.945Z,96.61
2018-09-12T06:35:44.990Z,96.61
2018-09-12T06:36:44.993Z,96.75
2018-09-12T06:37:45.026Z,96.75
2018-09-12T06:38:45.020Z,97.33
2018-09-12T06:39:45.025Z,97.14
2018-09-12T06:40:45.047Z,97.04
2018-09-12T06:41:45.054Z,97.14
2018-09-12T06:42:45.069Z,97.38
2018-09-12T06:43:45.109Z,96.51
2018-09-12T06:44:45.120Z,96.75
2018-09-12T06:45:45.137Z,96.99
2018-09-12T06:46:45.150Z,97.71
2018-09-12T06:47:45.154Z,96.99
2018-09-12T06:48:45.167Z,97.19
2018-09-12T06:49:45.182Z,97.38
2018-09-12T06:50:45.229Z,96.99
2018-09-12T06:51:45.329Z,95.94
2018-09-12T06:52:45.229Z,96.12
2018-09-12T06:53:45.276Z,96.61
2018-09-12T06:54:45.309Z,96.51
2018-09-12T06:55:45.292Z,96.70
2018-09-12T06:56:45.336Z,95.84
2018-09-12T06:57:45.331Z,95.26
2018-09-12T06:58:45.344Z,95.84
2018-09-12T06:59:45.687Z,95.55
2018-09-12T07:00:45.474Z,95.84
2018-09-12T07:01:45.396Z,96.03
2018-09-12T07:02:45.424Z,96.32
2018-09-12T07:03:45.408Z,96.22
2018-09-12T07:04:45.554Z,95.07
2018-09-12T07:05:45.448Z,95.94
2018-09-12T07:06:45.470Z,95.94
2018-09-12T07:07:45.491Z,95.94
2018-09-12T07:08:45.485Z,96.22
2018-09-12T07:09:45.500Z,96.12
2018-09-12T07:10:45.529Z,96.22
2018-09-12T07:11:45.568Z,96.12
2018-09-12T07:12:45.549Z,96.61
2018-09-12T07:13:45.564Z,96.89
2018-09-12T07:14:45.581Z,97.57
2018-09-12T07:15:45.597Z,97.38
2018-09-12T07:16:45.626Z,97.09
2018-09-12T07:17:46.138Z,97.42
2018-09-12T07:18:45.650Z,97.14
2018-09-12T07:19:46.022Z,96.85
2018-09-12T07:20:45.717Z,96.75
2018-09-12T07:21:46.239Z,96.85
2018-09-12T07:22:46.566Z,96.37
2018-09-12T07:23:45.726Z,96.17
2018-09-12T07:24:45.774Z,96.75
2018-09-12T07:25:45.758Z,96.56
2018-09-12T07:26:45.897Z,96.75
2018-09-12T07:27:45.795Z,97.24
2018-09-12T07:28:45.819Z,96.66
2018-09-12T07:29:45.838Z,97.04
2018-09-12T07:30:45.843Z,96.46
2018-09-12T07:31:45.861Z,96.27
2018-09-12T07:32:45.874Z,96.17
2018-09-12T07:33:45.888Z,96.17
2018-09-12T07:34:45.910Z,96.27
2018-09-12T07:35:45.991Z,96.17
2018-09-12T07:36:46.101Z,95.79
2018-09-12T07:37:45.953Z,96.85
2018-09-12T07:38:45.967Z,96.51
2018-09-12T07:39:45.986Z,96.66
2018-09-12T07:40:46.026Z,96.85
2018-09-12T07:41:46.103Z,96.85
2018-09-12T07:42:46.098Z,96.70
2018-09-12T07:43:46.052Z,96.51
2018-09-12T07:44:46.855Z,96.80
2018-09-12T07:45:46.912Z,96.51
2018-09-12T07:47:46.541Z,96.56
2018-09-12T07:48:46.370Z,96.12
2018-09-12T07:49:46.438Z,96.03
2018-09-12T07:50:46.170Z,96.22
2018-09-12T07:51:46.223Z,96.75
2018-09-12T07:52:46.313Z,96.89
2018-09-12T07:53:46.219Z,95.98
2018-09-12T07:54:46.284Z,96.56
2018-09-12T07:55:46.404Z,96.51
2018-09-12T07:56:46.385Z,96.85
2018-09-12T07:57:46.278Z,97.04
2018-09-12T07:58:46.298Z,96.85
2018-09-12T07:59:46.318Z,96.89
2018-09-12T08:00:46.329Z,96.61
2018-09-12T08:01:47.230Z,95.94
2018-09-12T08:02:46.371Z,95.45
2018-09-12T08:03:46.474Z,95.84
2018-09-12T08:04:47.094Z,95.16
2018-09-12T08:05:46.713Z,95.36
2018-09-12T08:06:46.707Z,95.26
2018-09-12T08:07:46.444Z,95.07
2018-09-12T08:08:46.458Z,95.07
2018-09-12T08:09:46.492Z,95.45
2018-09-12T08:10:46.496Z,94.68
2018-09-12T08:11:46.529Z,95.36
2018-09-12T08:12:46.528Z,94.49
2018-09-12T08:13:46.860Z,95.07
2018-09-12T08:14:46.616Z,95.07
2018-09-12T08:15:46.638Z,95.84
2018-09-12T08:18:46.646Z,95.16
2018-09-12T08:19:46.642Z,95.55
2018-09-12T08:20:47.035Z,95.94
2018-09-12T08:21:46.676Z,96.89
2018-09-12T08:23:46.718Z,97.67
2018-09-12T08:24:46.720Z,97.24
2018-09-12T08:25:46.744Z,97.52
2018-09-12T08:26:46.798Z,96.61
2018-09-12T08:27:46.778Z,97.28
2018-09-12T08:28:46.787Z,97.28
2018-09-12T08:29:46.801Z,96.66
2018-09-12T08:30:46.917Z,97.57
2018-09-12T08:31:46.842Z,96.42
2018-09-12T08:32:46.867Z,96.51
2018-09-12T08:33:46.876Z,96.22
2018-09-12T08:34:46.910Z,96.27
2018-09-12T08:35:47.073Z,95.50
2018-09-12T08:36:46.917Z,95.40
2018-09-12T08:37:47.052Z,95.21
2018-09-12T08:38:47.066Z,95.59
2018-09-12T08:39:46.989Z,94.73
2018-09-12T08:40:46.997Z,94.63
2018-09-12T08:41:47.012Z,94.15
2018-09-12T08:42:47.017Z,93.96
2018-09-12T08:43:47.069Z,93.28
2018-09-12T08:45:47.095Z,92.94
2018-09-12T08:46:47.130Z,92.27
2018-09-12T08:47:47.186Z,91.40
2018-09-12T08:48:47.139Z,91.98
2018-09-12T08:49:47.434Z,92.36
2018-09-12T08:50:47.268Z,91.88
2018-09-12T08:51:47.226Z,91.64
2018-09-12T08:52:47.287Z,91.25
2018-09-12T08:53:47.199Z,90.77
2018-09-12T08:54:47.312Z,90.58
2018-09-12T08:55:47.235Z,89.81
2018-09-12T08:56:47.306Z,90.00
2018-09-12T08:57:47.296Z,90.63
2018-09-12T08:58:47.278Z,90.34
2018-09-12T08:59:47.485Z,90.34
2018-09-12T09:00:47.379Z,90.44
2018-09-12T09:01:47.334Z,90.09
2018-09-12T09:02:47.576Z,89.90
2018-09-12T09:03:47.394Z,88.84
2018-09-12T09:04:47.378Z,88.75
2018-09-12T09:05:47.736Z,88.98
2018-09-12T09:06:47.428Z,88.40
2018-09-12T09:07:47.436Z,87.78
2018-09-12T09:08:47.601Z,88.59
2018-09-12T09:09:47.478Z,88.02
2018-09-12T09:10:47.499Z,89.23
2018-09-12T09:11:47.523Z,89.03
2018-09-12T09:12:47.520Z,89.03
2018-09-12T09:13:47.829Z,89.90
2018-09-12T09:14:47.616Z,90.38
2018-09-12T09:15:47.885Z,89.71
2018-09-12T09:16:47.589Z,89.32
2018-09-12T09:17:47.721Z,89.90
2018-09-12T09:18:47.625Z,90.05
2018-09-12T09:19:48.127Z,90.15
2018-09-12T09:20:48.117Z,90.63
2018-09-12T09:21:47.692Z,90.82
2018-09-12T09:22:48.046Z,91.02
2018-09-12T09:23:48.504Z,90.92
2018-09-12T09:24:48.423Z,91.36
2018-09-12T09:25:47.910Z,92.32
2018-09-12T09:26:48.011Z,92.22
2018-09-12T09:28:47.817Z,92.56
2018-09-12T09:29:47.795Z,92.36
2018-09-12T09:30:48.631Z,91.88
2018-09-12T09:31:47.861Z,91.60
2018-09-12T09:32:47.866Z,91.50
2018-09-12T09:33:47.868Z,91.60
2018-09-12T09:34:48.733Z,90.82
2018-09-12T09:35:47.961Z,90.63
2018-09-12T09:36:47.905Z,90.34
2018-09-12T09:37:48.507Z,90.15
2018-09-12T09:38:47.941Z,90.05
2018-09-12T09:39:47.957Z,91.20
2018-09-12T09:40:48.056Z,90.34
2018-09-12T09:41:48.010Z,90.15
2018-09-12T09:42:48.054Z,90.24
2018-09-12T09:43:48.054Z,90.53
2018-09-12T09:44:48.167Z,90.44
2018-09-12T09:45:48.064Z,90.05
2018-09-12T09:46:48.179Z,91.11
2018-09-12T09:47:48.156Z,90.92
2018-09-12T09:48:48.105Z,90.78
2018-09-12T09:49:48.131Z,91.40
2018-09-12T09:50:48.262Z,91.40
2018-09-12T09:51:48.216Z,90.53
2018-09-12T09:52:48.176Z,90.82
2018-09-12T09:53:48.188Z,90.44
2018-09-12T09:54:48.253Z,89.86
2018-09-12T09:55:48.223Z,89.03
2018-09-12T09:56:48.469Z,88.75
2018-09-12T09:57:48.635Z,88.93
2018-09-12T09:58:48.299Z,88.84
2018-09-12T09:59:48.287Z,88.36
2018-09-12T10:00:48.353Z,88.84
2018-09-12T10:01:48.344Z,88.84
2018-09-12T10:02:48.376Z,88.69
2018-09-12T10:03:48.388Z,87.34
2018-09-12T10:05:48.469Z,86.76
2018-09-12T10:06:48.408Z,86.57
2018-09-12T10:07:48.423Z,86.08
2018-09-12T10:08:48.440Z,85.89
2018-09-12T10:09:48.456Z,85.80
2018-09-12T10:10:49.128Z,86.38
2018-09-12T10:12:48.551Z,86.28
2018-09-12T10:13:48.552Z,86.08
2018-09-12T10:14:48.556Z,85.99
2018-09-12T10:15:48.560Z,85.99
2018-09-12T10:16:48.640Z,86.03
2018-09-12T10:17:48.596Z,84.88
2018-09-12T10:18:48.615Z,84.88
2018-09-12T10:19:48.651Z,84.20
2018-09-12T10:20:48.665Z,84.00
2018-09-12T10:21:48.726Z,83.91
2018-09-12T10:22:48.733Z,83.91
2018-09-12T10:23:48.711Z,83.72
2018-09-12T10:24:49.022Z,84.20
2018-09-12T10:25:48.880Z,84.10
2018-09-12T10:26:48.882Z,84.39
2018-09-12T10:27:48.770Z,84.68
2018-09-12T10:28:48.788Z,84.54
2018-09-12T10:29:48.802Z,85.60
2018-09-12T10:30:49.159Z,86.28
2018-09-12T10:32:48.862Z,86.68
2018-09-12T10:33:50.899Z,87.12
2018-09-12T10:34:49.321Z,88.61
2018-09-12T10:35:48.907Z,90.30
2018-09-12T10:36:48.921Z,90.30
2018-09-12T10:37:48.937Z,91.17
2018-09-12T10:38:48.960Z,91.13
2018-09-12T10:39:48.971Z,92.18
2018-09-12T10:40:49.013Z,92.71
2018-09-12T10:41:49.016Z,93.48
2018-09-12T10:42:49.370Z,93.19
2018-09-12T10:43:49.053Z,92.91
2018-09-12T10:44:49.054Z,92.52
2018-09-12T10:45:49.375Z,92.71
2018-09-12T10:46:49.087Z,92.52
2018-09-12T10:47:49.107Z,92.67
2018-09-12T10:48:49.122Z,93.91
2018-09-12T10:49:49.142Z,93.91
2018-09-12T10:50:49.833Z,94.49
2018-09-12T10:51:49.326Z,94.40
2018-09-12T10:52:49.938Z,93.82
2018-09-12T10:53:49.205Z,93.24
2018-09-12T10:54:49.267Z,92.57
2018-09-12T10:55:49.239Z,93.24
2018-09-12T10:56:49.252Z,93.15
2018-09-12T10:57:49.266Z,93.44
2018-09-12T10:58:49.285Z,93.10
2018-09-12T10:59:49.302Z,92.04
2018-09-12T11:00:49.319Z,91.94
2018-09-12T11:01:49.334Z,92.33
2018-09-12T11:02:49.352Z,92.13
2018-09-12T11:03:49.368Z,92.09
2018-09-12T11:04:49.385Z,91.99
2018-09-12T11:05:49.401Z,92.38
2018-09-12T11:06:49.419Z,92.86
2018-09-12T11:07:49.437Z,92.29
2018-09-12T11:08:49.722Z,92.86
2018-09-12T11:09:49.508Z,92.81
2018-09-12T11:10:49.489Z,92.43
2018-09-12T11:11:49.499Z,91.17
2018-09-12T11:12:49.520Z,90.50
2018-09-12T11:14:49.552Z,89.29
2018-09-12T11:15:49.566Z,90.26
2018-09-12T11:16:49.595Z,89.92
2018-09-12T11:17:49.609Z,89.15
2018-09-12T11:18:49.619Z,89.83
2018-09-12T11:19:49.638Z,90.55
2018-09-12T11:20:49.666Z,91.17
2018-09-12T11:21:49.694Z,91.03
2018-09-12T11:22:49.698Z,91.71
2018-09-12T11:23:49.734Z,91.99
2018-09-12T11:24:49.715Z,92.47
2018-09-12T11:25:49.734Z,92.38
2018-09-12T11:26:49.930Z,91.61
2018-09-12T11:27:49.809Z,91.71
2018-09-12T11:28:49.783Z,91.42
2018-09-12T11:29:49.806Z,91.22
2018-09-12T11:30:49.893Z,91.03
2018-09-12T11:31:49.938Z,90.84
2018-09-12T11:32:49.849Z,91.13
2018-09-12T11:33:49.867Z,92.38
2018-09-12T11:34:49.892Z,91.99
2018-09-12T11:35:49.901Z,91.32
2018-09-12T11:36:49.917Z,90.55
2018-09-12T11:37:50.991Z,90.55
2018-09-12T11:38:49.951Z,90.75
2018-09-12T11:39:49.965Z,91.52
2018-09-12T11:40:49.983Z,91.71
2018-09-12T11:41:50.027Z,91.66
2018-09-12T11:42:50.755Z,89.92
2018-09-12T11:43:50.041Z,90.21
2018-09-12T11:44:50.050Z,90.12
2018-09-12T11:45:50.104Z,90.41
2018-09-12T11:46:50.094Z,89.92
2018-09-12T11:47:50.135Z,88.77
2018-09-12T11:48:50.375Z,88.92
2018-09-12T11:49:51.037Z,89.78
2018-09-12T11:50:50.157Z,90.45
2018-09-12T11:51:51.279Z,89.88
2018-09-12T11:52:50.633Z,89.11
2018-09-12T11:53:51.313Z,89.30
2018-09-12T11:54:50.350Z,89.88
2018-09-12T11:55:50.747Z,90.65
2018-09-12T11:56:50.270Z,90.45
2018-09-12T11:57:50.804Z,91.32
2018-09-12T11:58:50.363Z,91.28
2018-09-12T11:59:50.458Z,92.14
2018-09-12T12:00:50.319Z,92.48
2018-09-12T12:01:50.343Z,93.25
2018-09-12T12:02:50.645Z,94.49
2018-09-12T12:03:50.364Z,94.64
2018-09-12T12:04:50.472Z,94.93
2018-09-12T12:05:50.396Z,95.50
2018-09-12T12:06:50.506Z,95.26
2018-09-12T12:07:50.429Z,95.12
2018-09-12T12:08:50.452Z,95.31
2018-09-12T12:09:50.471Z,95.89
2018-09-12T12:10:50.486Z,95.26
2018-09-12T12:11:50.498Z,93.63
2018-09-12T12:12:50.505Z,94.69
2018-09-12T12:13:50.521Z,93.73
2018-09-12T12:14:50.542Z,93.92
2018-09-12T12:15:50.618Z,93.54
2018-09-12T12:16:50.575Z,94.11
2018-09-12T12:17:50.589Z,93.63
2018-09-12T12:18:50.616Z,93.05
2018-09-12T12:19:50.627Z,92.67
2018-09-12T12:20:50.638Z,93.34
2018-09-12T12:21:51.210Z,93.73
2018-09-12T12:22:50.690Z,92.29
2018-09-12T12:23:50.757Z,92.48
2018-09-12T12:24:50.750Z,91.81
2018-09-12T12:25:50.718Z,92.10
2018-09-12T12:26:50.736Z,92.00
2018-09-12T12:27:50.748Z,92.72
2018-09-12T12:28:50.768Z,93.10
2018-09-12T12:29:50.781Z,93.97
2018-09-12T12:30:50.797Z,94.35
2018-09-12T12:31:50.811Z,93.82
2018-09-12T12:32:50.841Z,94.31
2018-09-12T12:33:50.844Z,94.16
2018-09-12T12:34:50.863Z,94.40
2018-09-12T12:35:51.024Z,93.25
2018-09-12T12:36:51.037Z,93.15
2018-09-12T12:37:51.598Z,94.11
2018-09-12T12:38:50.930Z,94.40
2018-09-12T12:39:50.939Z,93.82
2018-09-12T12:40:50.976Z,93.44
2018-09-12T12:41:50.985Z,93.63
2018-09-12T12:42:51.052Z,94.21
2018-09-12T12:43:51.002Z,95.17
2018-09-12T12:44:51.019Z,95.07
2018-09-12T12:45:51.192Z,95.55
2018-09-12T12:46:51.052Z,95.26
2018-09-12T12:47:51.067Z,94.31
2018-09-12T12:48:51.090Z,93.87
2018-09-12T12:49:51.108Z,94.45
2018-09-12T12:50:51.124Z,94.74
2018-09-12T12:51:51.184Z,95.31
2018-09-12T12:52:51.145Z,95.12
2018-09-12T12:53:51.168Z,96.08
2018-09-12T12:54:51.180Z,96.27
2018-09-12T12:55:51.191Z,97.14
2018-09-12T12:56:51.209Z,98.14
2018-09-12T12:57:51.224Z,99.58
2018-09-12T12:58:51.243Z,99.01
2018-09-12T12:59:51.284Z,99.99
2018-09-12T13:00:51.280Z,99.99
2018-09-12T13:01:51.288Z,99.99
2018-09-12T13:02:51.453Z,99.99
2018-09-12T13:03:51.320Z,99.99
2018-09-12T13:04:51.564Z,99.99
2018-09-12T13:05:51.356Z,99.99
2018-09-12T13:06:52.746Z,99.99